sensor_id;sensor_type;location;lat;lon;timestamp;pressure;altitude;pressure_sealevel;temperature;humidity
81547;BME280;71078;48.358;10.960;2023-08-01T00:00:59;95246.03;;;21.69;46.84
81547;BME280;71078;48.358;10.960;2023-08-01T00:03:20;95236.56;;;21.72;46.28
81547;BME280;71078;48.358;10.960;2023-08-01T00:05:40;95231.78;;;21.80;46.79
81547;BME280;71078;48.358;10.960;2023-08-01T00:08:07;95236.69;;;21.88;46.60
81547;BME280;71078;48.358;10.960;2023-08-01T00:10:28;95232.25;;;21.92;46.42
81547;BME280;71078;48.358;10.960;2023-08-01T00:12:48;95222.44;;;21.99;46.51
81547;BME280;71078;48.358;10.960;2023-08-01T00:15:09;95218.34;;;22.00;46.35
81547;BME280;71078;48.358;10.960;2023-08-01T00:17:30;95218.00;;;22.03;46.04
81547;BME280;71078;48.358;10.960;2023-08-01T00:19:50;95216.91;;;22.06;46.01
81547;BME280;71078;48.358;10.960;2023-08-01T00:22:11;95203.25;;;22.03;45.98
81547;BME280;71078;48.358;10.960;2023-08-01T00:24:31;95205.31;;;22.02;45.95
81547;BME280;71078;48.358;10.960;2023-08-01T00:26:52;95208.25;;;21.97;46.62
81547;BME280;71078;48.358;10.960;2023-08-01T00:29:16;95201.13;;;21.96;46.62
81547;BME280;71078;48.358;10.960;2023-08-01T00:31:36;95195.53;;;21.96;46.29
81547;BME280;71078;48.358;10.960;2023-08-01T00:33:57;95192.50;;;21.86;47.45
81547;BME280;71078;48.358;10.960;2023-08-01T00:36:18;95187.09;;;21.88;47.60
81547;BME280;71078;48.358;10.960;2023-08-01T00:38:39;95169.91;;;21.84;46.98
81547;BME280;71078;48.358;10.960;2023-08-01T00:40:59;95170.06;;;21.99;46.87
81547;BME280;71078;48.358;10.960;2023-08-01T00:43:20;95164.25;;;21.97;46.79
81547;BME280;71078;48.358;10.960;2023-08-01T00:45:41;95173.13;;;21.88;46.70
81547;BME280;71078;48.358;10.960;2023-08-01T00:48:02;95167.31;;;21.86;46.87
81547;BME280;71078;48.358;10.960;2023-08-01T00:50:23;95158.38;;;21.88;46.94
81547;BME280;71078;48.358;10.960;2023-08-01T00:52:44;95154.09;;;21.86;47.73
81547;BME280;71078;48.358;10.960;2023-08-01T00:55:06;95162.34;;;21.92;47.46
81547;BME280;71078;48.358;10.960;2023-08-01T00:57:27;95153.00;;;21.90;47.22
81547;BME280;71078;48.358;10.960;2023-08-01T00:59:48;95148.50;;;21.86;47.25
81547;BME280;71078;48.358;10.960;2023-08-01T01:02:09;95150.19;;;21.90;47.31
81547;BME280;71078;48.358;10.960;2023-08-01T01:04:29;95158.78;;;21.92;47.14
81547;BME280;71078;48.358;10.960;2023-08-01T01:07:02;95160.16;;;21.98;47.19
81547;BME280;71078;48.358;10.960;2023-08-01T01:09:23;95160.41;;;22.08;46.68
81547;BME280;71078;48.358;10.960;2023-08-01T01:11:44;95161.75;;;22.14;46.26
81547;BME280;71078;48.358;10.960;2023-08-01T01:14:05;95162.34;;;22.21;45.47
81547;BME280;71078;48.358;10.960;2023-08-01T01:16:26;95157.84;;;22.17;45.65
81547;BME280;71078;48.358;10.960;2023-08-01T01:18:46;95152.06;;;22.15;45.44
81547;BME280;71078;48.358;10.960;2023-08-01T01:21:07;95149.06;;;22.13;45.36
81547;BME280;71078;48.358;10.960;2023-08-01T01:23:28;95148.88;;;22.11;44.94
81547;BME280;71078;48.358;10.960;2023-08-01T01:25:51;95147.03;;;22.14;45.42
81547;BME280;71078;48.358;10.960;2023-08-01T01:28:12;95138.78;;;22.08;45.10
81547;BME280;71078;48.358;10.960;2023-08-01T01:30:34;95129.44;;;22.06;45.40
81547;BME280;71078;48.358;10.960;2023-08-01T01:32:56;95125.94;;;22.13;45.69
81547;BME280;71078;48.358;10.960;2023-08-01T01:35:17;95129.09;;;22.09;44.98
81547;BME280;71078;48.358;10.960;2023-08-01T01:37:38;95118.97;;;21.99;45.75
81547;BME280;71078;48.358;10.960;2023-08-01T01:39:59;95111.13;;;21.97;46.08
81547;BME280;71078;48.358;10.960;2023-08-01T01:42:19;95116.09;;;21.91;46.24
81547;BME280;71078;48.358;10.960;2023-08-01T01:44:39;95106.75;;;21.89;47.07
81547;BME280;71078;48.358;10.960;2023-08-01T01:47:00;95100.97;;;21.86;47.40
81547;BME280;71078;48.358;10.960;2023-08-01T01:49:20;95095.19;;;21.84;47.23
81547;BME280;71078;48.358;10.960;2023-08-01T01:51:41;95089.38;;;21.82;46.66
81547;BME280;71078;48.358;10.960;2023-08-01T01:54:01;95075.22;;;21.80;46.98
81547;BME280;71078;48.358;10.960;2023-08-01T01:56:22;95073.34;;;21.83;47.02
81547;BME280;71078;48.358;10.960;2023-08-01T01:58:43;95070.88;;;21.72;46.42
81547;BME280;71078;48.358;10.960;2023-08-01T02:01:03;95068.97;;;21.67;47.10
81547;BME280;71078;48.358;10.960;2023-08-01T02:03:24;95067.28;;;21.64;46.87
81547;BME280;71078;48.358;10.960;2023-08-01T02:05:45;95065.88;;;21.49;46.54
81547;BME280;71078;48.358;10.960;2023-08-01T02:08:05;95068.81;;;21.44;47.05
81547;BME280;71078;48.358;10.960;2023-08-01T02:10:26;95052.09;;;21.51;47.04
81547;BME280;71078;48.358;10.960;2023-08-01T02:12:46;95062.88;;;21.47;46.77
81547;BME280;71078;48.358;10.960;2023-08-01T02:15:07;95054.91;;;21.51;46.66
81547;BME280;71078;48.358;10.960;2023-08-01T02:17:28;95045.97;;;21.53;46.32
81547;BME280;71078;48.358;10.960;2023-08-01T02:19:48;95042.31;;;21.37;46.51
81547;BME280;71078;48.358;10.960;2023-08-01T02:22:09;95041.69;;;21.52;46.38
81547;BME280;71078;48.358;10.960;2023-08-01T02:24:29;95046.13;;;21.47;46.20
81547;BME280;71078;48.358;10.960;2023-08-01T02:26:51;95049.72;;;21.56;45.83
81547;BME280;71078;48.358;10.960;2023-08-01T02:29:12;95042.97;;;21.51;45.71
81547;BME280;71078;48.358;10.960;2023-08-01T02:31:32;95045.56;;;21.49;45.15
81547;BME280;71078;48.358;10.960;2023-08-01T02:33:53;95060.75;;;21.61;45.13
81547;BME280;71078;48.358;10.960;2023-08-01T02:36:13;95065.78;;;21.63;44.81
81547;BME280;71078;48.358;10.960;2023-08-01T02:38:34;95076.84;;;21.76;44.49
81547;BME280;71078;48.358;10.960;2023-08-01T02:40:54;95078.75;;;21.81;44.84
81547;BME280;71078;48.358;10.960;2023-08-01T02:43:15;95091.38;;;21.74;44.96
81547;BME280;71078;48.358;10.960;2023-08-01T02:45:36;95078.16;;;21.46;45.57
81547;BME280;71078;48.358;10.960;2023-08-01T02:47:56;95095.75;;;21.13;46.38
81547;BME280;71078;48.358;10.960;2023-08-01T02:50:18;95092.00;;;21.10;46.49
81547;BME280;71078;48.358;10.960;2023-08-01T02:52:38;95075.31;;;21.18;47.18
81547;BME280;71078;48.358;10.960;2023-08-01T02:54:58;95091.06;;;21.29;46.80
81547;BME280;71078;48.358;10.960;2023-08-01T02:57:19;95078.03;;;21.31;46.92
81547;BME280;71078;48.358;10.960;2023-08-01T02:59:40;95080.28;;;20.91;47.73
81547;BME280;71078;48.358;10.960;2023-08-01T03:02:00;95086.22;;;21.29;47.52
81547;BME280;71078;48.358;10.960;2023-08-01T03:04:21;95082.00;;;21.36;47.38
81547;BME280;71078;48.358;10.960;2023-08-01T03:07:00;95089.94;;;21.52;47.30
81547;BME280;71078;48.358;10.960;2023-08-01T03:09:20;95086.25;;;21.58;47.98
81547;BME280;71078;48.358;10.960;2023-08-01T03:11:41;95082.31;;;21.53;47.76
81547;BME280;71078;48.358;10.960;2023-08-01T03:14:02;95085.78;;;21.46;48.10
81547;BME280;71078;48.358;10.960;2023-08-01T03:16:24;95083.28;;;21.35;48.18
81547;BME280;71078;48.358;10.960;2023-08-01T03:18:45;95083.56;;;21.03;48.46
81547;BME280;71078;48.358;10.960;2023-08-01T03:21:05;95076.00;;;21.11;48.64
81547;BME280;71078;48.358;10.960;2023-08-01T03:23:26;95080.56;;;21.21;48.85
81547;BME280;71078;48.358;10.960;2023-08-01T03:25:47;95077.69;;;21.14;48.99
81547;BME280;71078;48.358;10.960;2023-08-01T03:28:08;95085.06;;;21.04;49.61
81547;BME280;71078;48.358;10.960;2023-08-01T03:30:31;95079.81;;;21.21;49.85
81547;BME280;71078;48.358;10.960;2023-08-01T03:32:52;95087.84;;;21.04;49.97
81547;BME280;71078;48.358;10.960;2023-08-01T03:35:14;95092.28;;;20.99;50.34
81547;BME280;71078;48.358;10.960;2023-08-01T03:37:34;95087.03;;;20.96;50.64
81547;BME280;71078;48.358;10.960;2023-08-01T03:39:55;95076.34;;;20.86;51.39
81547;BME280;71078;48.358;10.960;2023-08-01T03:42:16;95074.75;;;20.57;51.49
81547;BME280;71078;48.358;10.960;2023-08-01T03:44:36;95075.88;;;20.27;52.59
81547;BME280;71078;48.358;10.960;2023-08-01T03:46:57;95079.84;;;20.19;52.62
81547;BME280;71078;48.358;10.960;2023-08-01T03:49:17;95077.78;;;20.33;52.44
81547;BME280;71078;48.358;10.960;2023-08-01T03:51:38;95068.50;;;20.17;53.24
81547;BME280;71078;48.358;10.960;2023-08-01T03:53:59;95060.88;;;20.51;52.97
81547;BME280;71078;48.358;10.960;2023-08-01T03:56:33;95066.66;;;20.53;52.42
81547;BME280;71078;48.358;10.960;2023-08-01T03:58:53;95061.22;;;20.48;52.61
81547;BME280;71078;48.358;10.960;2023-08-01T04:01:14;95063.50;;;20.36;53.21
81547;BME280;71078;48.358;10.960;2023-08-01T04:03:35;95059.91;;;20.15;53.90
81547;BME280;71078;48.358;10.960;2023-08-01T04:05:56;95062.94;;;20.51;52.91
81547;BME280;71078;48.358;10.960;2023-08-01T04:08:16;95059.94;;;20.49;53.51
81547;BME280;71078;48.358;10.960;2023-08-01T04:10:37;95051.97;;;20.53;53.33
81547;BME280;71078;48.358;10.960;2023-08-01T04:12:57;95051.75;;;20.51;53.29
81547;BME280;71078;48.358;10.960;2023-08-01T04:15:18;95054.69;;;20.45;53.46
81547;BME280;71078;48.358;10.960;2023-08-01T04:17:39;95040.41;;;20.49;53.07
81547;BME280;71078;48.358;10.960;2023-08-01T04:20:01;95036.78;;;20.41;53.50
81547;BME280;71078;48.358;10.960;2023-08-01T04:22:22;95037.19;;;20.45;53.85
81547;BME280;71078;48.358;10.960;2023-08-01T04:24:42;95030.44;;;20.40;54.01
81547;BME280;71078;48.358;10.960;2023-08-01T04:27:04;95031.38;;;20.56;54.10
81547;BME280;71078;48.358;10.960;2023-08-01T04:29:24;95027.16;;;20.63;53.69
81547;BME280;71078;48.358;10.960;2023-08-01T04:31:45;95020.00;;;20.54;53.73
81547;BME280;71078;48.358;10.960;2023-08-01T04:34:06;95002.19;;;20.57;54.22
81547;BME280;71078;48.358;10.960;2023-08-01T04:36:26;95010.13;;;20.53;53.85
81547;BME280;71078;48.358;10.960;2023-08-01T04:38:47;94991.69;;;20.50;53.79
81547;BME280;71078;48.358;10.960;2023-08-01T04:41:07;94991.72;;;20.37;54.64
81547;BME280;71078;48.358;10.960;2023-08-01T04:43:28;94988.13;;;20.29;54.15
81547;BME280;71078;48.358;10.960;2023-08-01T04:45:49;94995.59;;;20.34;54.41
81547;BME280;71078;48.358;10.960;2023-08-01T04:48:10;95000.38;;;20.46;54.44
81547;BME280;71078;48.358;10.960;2023-08-01T04:50:30;94995.97;;;20.51;54.47
81547;BME280;71078;48.358;10.960;2023-08-01T04:52:51;94984.66;;;20.36;54.34
81547;BME280;71078;48.358;10.960;2023-08-01T04:55:11;94984.19;;;20.45;53.98
81547;BME280;71078;48.358;10.960;2023-08-01T04:57:32;94983.41;;;20.57;53.90
81547;BME280;71078;48.358;10.960;2023-08-01T04:59:53;94984.03;;;20.30;53.61
81547;BME280;71078;48.358;10.960;2023-08-01T05:02:13;94985.28;;;20.42;54.58
81547;BME280;71078;48.358;10.960;2023-08-01T05:04:34;94976.91;;;20.42;54.67
81547;BME280;71078;48.358;10.960;2023-08-01T05:06:54;94996.69;;;20.31;54.81
81547;BME280;71078;48.358;10.960;2023-08-01T05:09:15;95005.41;;;20.27;54.32
81547;BME280;71078;48.358;10.960;2023-08-01T05:11:36;95006.34;;;20.30;55.00
81547;BME280;71078;48.358;10.960;2023-08-01T05:13:56;95014.66;;;20.43;54.54
81547;BME280;71078;48.358;10.960;2023-08-01T05:16:17;95004.94;;;20.36;53.74
81547;BME280;71078;48.358;10.960;2023-08-01T05:18:37;95015.50;;;20.51;54.41
81547;BME280;71078;48.358;10.960;2023-08-01T05:20:58;95023.44;;;20.60;53.70
81547;BME280;71078;48.358;10.960;2023-08-01T05:23:18;95025.63;;;20.41;54.24
81547;BME280;71078;48.358;10.960;2023-08-01T05:25:39;95007.78;;;20.78;52.95
81547;BME280;71078;48.358;10.960;2023-08-01T05:28:00;95007.09;;;20.64;53.54
81547;BME280;71078;48.358;10.960;2023-08-01T05:30:21;95020.84;;;20.62;53.31
81547;BME280;71078;48.358;10.960;2023-08-01T05:32:41;95015.88;;;20.68;53.76
81547;BME280;71078;48.358;10.960;2023-08-01T05:35:04;95004.28;;;20.64;53.30
81547;BME280;71078;48.358;10.960;2023-08-01T05:37:25;95000.69;;;20.77;53.48
81547;BME280;71078;48.358;10.960;2023-08-01T05:39:45;94990.88;;;20.83;53.79
81547;BME280;71078;48.358;10.960;2023-08-01T05:42:06;94982.09;;;20.79;53.65
81547;BME280;71078;48.358;10.960;2023-08-01T05:44:29;94984.91;;;20.79;54.14
81547;BME280;71078;48.358;10.960;2023-08-01T05:46:49;94971.34;;;20.63;53.71
81547;BME280;71078;48.358;10.960;2023-08-01T05:49:10;94962.63;;;20.45;53.75
81547;BME280;71078;48.358;10.960;2023-08-01T05:51:31;94931.34;;;20.05;54.48
81547;BME280;71078;48.358;10.960;2023-08-01T05:53:51;94932.59;;;20.38;54.60
81547;BME280;71078;48.358;10.960;2023-08-01T05:56:12;94912.94;;;20.44;54.35
81547;BME280;71078;48.358;10.960;2023-08-01T05:58:32;94900.44;;;20.37;54.34
81547;BME280;71078;48.358;10.960;2023-08-01T06:00:53;94889.41;;;20.32;54.87
81547;BME280;71078;48.358;10.960;2023-08-01T06:03:14;94865.06;;;20.32;54.33
81547;BME280;71078;48.358;10.960;2023-08-01T06:05:35;94863.41;;;20.57;53.33
81547;BME280;71078;48.358;10.960;2023-08-01T06:07:56;94853.69;;;20.09;53.87
81547;BME280;71078;48.358;10.960;2023-08-01T06:10:16;94858.06;;;20.18;53.59
81547;BME280;71078;48.358;10.960;2023-08-01T06:12:37;94848.75;;;20.15;54.45
81547;BME280;71078;48.358;10.960;2023-08-01T06:14:58;94846.50;;;19.93;54.20
81547;BME280;71078;48.358;10.960;2023-08-01T06:17:18;94865.88;;;20.19;53.80
81547;BME280;71078;48.358;10.960;2023-08-01T06:19:39;94880.56;;;20.20;53.61
81547;BME280;71078;48.358;10.960;2023-08-01T06:21:59;94890.56;;;20.15;52.81
81547;BME280;71078;48.358;10.960;2023-08-01T06:24:20;94888.38;;;20.21;53.11
81547;BME280;71078;48.358;10.960;2023-08-01T06:26:41;94899.06;;;20.51;51.86
81547;BME280;71078;48.358;10.960;2023-08-01T06:29:02;94891.84;;;20.77;52.06
81547;BME280;71078;48.358;10.960;2023-08-01T06:31:23;94907.38;;;20.65;51.24
81547;BME280;71078;48.358;10.960;2023-08-01T06:33:43;94900.00;;;20.75;50.74
81547;BME280;71078;48.358;10.960;2023-08-01T06:36:05;94898.75;;;20.83;50.58
81547;BME280;71078;48.358;10.960;2023-08-01T06:38:25;94900.84;;;20.90;50.19
81547;BME280;71078;48.358;10.960;2023-08-01T06:40:46;94909.91;;;20.55;50.96
81547;BME280;71078;48.358;10.960;2023-08-01T06:43:06;94908.31;;;20.67;50.38
81547;BME280;71078;48.358;10.960;2023-08-01T06:45:27;94903.06;;;20.84;50.15
81547;BME280;71078;48.358;10.960;2023-08-01T06:47:48;94899.22;;;20.95;49.91
81547;BME280;71078;48.358;10.960;2023-08-01T06:50:09;94910.47;;;20.82;49.86
81547;BME280;71078;48.358;10.960;2023-08-01T06:52:30;94902.25;;;20.35;50.85
81547;BME280;71078;48.358;10.960;2023-08-01T06:54:51;94911.78;;;20.39;50.24
81547;BME280;71078;48.358;10.960;2023-08-01T06:57:11;94902.84;;;21.11;49.47
81547;BME280;71078;48.358;10.960;2023-08-01T06:59:32;94898.00;;;21.11;49.30
81547;BME280;71078;48.358;10.960;2023-08-01T07:01:53;94904.84;;;21.03;49.46
81547;BME280;71078;48.358;10.960;2023-08-01T07:04:14;94902.13;;;21.18;49.19
81547;BME280;71078;48.358;10.960;2023-08-01T07:06:34;94905.38;;;21.01;49.46
81547;BME280;71078;48.358;10.960;2023-08-01T07:08:55;94910.63;;;21.33;48.79
81547;BME280;71078;48.358;10.960;2023-08-01T07:11:18;94893.34;;;21.42;48.89
81547;BME280;71078;48.358;10.960;2023-08-01T07:13:39;94889.72;;;21.70;47.92
81547;BME280;71078;48.358;10.960;2023-08-01T07:16:00;94885.66;;;21.79;47.77
81547;BME280;71078;48.358;10.960;2023-08-01T07:18:20;94907.25;;;21.78;47.50
81547;BME280;71078;48.358;10.960;2023-08-01T07:20:41;94927.72;;;21.66;47.15
81547;BME280;71078;48.358;10.960;2023-08-01T07:23:02;94926.28;;;21.80;47.41
81547;BME280;71078;48.358;10.960;2023-08-01T07:25:23;94914.06;;;21.54;46.83
81547;BME280;71078;48.358;10.960;2023-08-01T07:27:43;94908.34;;;21.68;46.51
81547;BME280;71078;48.358;10.960;2023-08-01T07:30:05;94916.72;;;21.68;46.63
81547;BME280;71078;48.358;10.960;2023-08-01T07:32:26;94906.63;;;21.57;46.46
81547;BME280;71078;48.358;10.960;2023-08-01T07:34:46;94914.53;;;21.81;46.25
81547;BME280;71078;48.358;10.960;2023-08-01T07:37:07;94912.34;;;21.44;45.97
81547;BME280;71078;48.358;10.960;2023-08-01T07:39:27;94903.41;;;21.45;45.59
81547;BME280;71078;48.358;10.960;2023-08-01T07:41:48;94901.78;;;21.58;45.87
81547;BME280;71078;48.358;10.960;2023-08-01T07:44:08;94873.66;;;21.19;45.43
81547;BME280;71078;48.358;10.960;2023-08-01T07:46:29;94869.97;;;21.68;45.38
81547;BME280;71078;48.358;10.960;2023-08-01T07:48:50;94885.66;;;21.86;44.66
81547;BME280;71078;48.358;10.960;2023-08-01T07:51:13;94885.34;;;21.98;44.23
81547;BME280;71078;48.358;10.960;2023-08-01T07:53:34;94875.47;;;21.09;45.01
81547;BME280;71078;48.358;10.960;2023-08-01T07:55:55;94886.72;;;21.25;44.75
81547;BME280;71078;48.358;10.960;2023-08-01T07:58:16;94884.16;;;20.98;44.63
81547;BME280;71078;48.358;10.960;2023-08-01T08:00:37;94890.03;;;21.15;44.87
81547;BME280;71078;48.358;10.960;2023-08-01T08:02:58;94889.41;;;21.38;44.34
81547;BME280;71078;48.358;10.960;2023-08-01T08:05:19;94879.16;;;21.04;44.59
81547;BME280;71078;48.358;10.960;2023-08-01T08:07:39;94888.28;;;21.05;44.71
81547;BME280;71078;48.358;10.960;2023-08-01T08:10:00;94878.97;;;21.38;43.65
81547;BME280;71078;48.358;10.960;2023-08-01T08:12:22;94883.69;;;21.51;43.76
81547;BME280;71078;48.358;10.960;2023-08-01T08:14:43;94902.44;;;21.35;43.36
81547;BME280;71078;48.358;10.960;2023-08-01T08:17:03;94888.38;;;21.56;44.03
81547;BME280;71078;48.358;10.960;2023-08-01T08:19:24;94892.09;;;21.59;43.73
81547;BME280;71078;48.358;10.960;2023-08-01T08:21:45;94904.03;;;20.66;44.81
81547;BME280;71078;48.358;10.960;2023-08-01T08:24:06;94903.63;;;20.62;45.31
81547;BME280;71078;48.358;10.960;2023-08-01T08:26:27;94892.66;;;21.21;44.66
81547;BME280;71078;48.358;10.960;2023-08-01T08:28:47;94901.00;;;21.13;44.36
81547;BME280;71078;48.358;10.960;2023-08-01T08:31:08;94902.59;;;21.30;44.33
81547;BME280;71078;48.358;10.960;2023-08-01T08:33:29;94909.56;;;21.44;44.13
81547;BME280;71078;48.358;10.960;2023-08-01T08:35:50;94905.44;;;20.80;44.89
81547;BME280;71078;48.358;10.960;2023-08-01T08:38:11;94914.31;;;21.28;44.44
81547;BME280;71078;48.358;10.960;2023-08-01T08:40:32;94906.88;;;21.02;45.07
81547;BME280;71078;48.358;10.960;2023-08-01T08:42:53;94915.94;;;21.52;44.31
81547;BME280;71078;48.358;10.960;2023-08-01T08:45:18;94911.34;;;21.26;44.33
81547;BME280;71078;48.358;10.960;2023-08-01T08:47:41;94913.06;;;21.88;43.86
81547;BME280;71078;48.358;10.960;2023-08-01T08:50:03;94915.94;;;21.52;44.15
81547;BME280;71078;48.358;10.960;2023-08-01T08:52:25;94913.63;;;21.86;43.78
81547;BME280;71078;48.358;10.960;2023-08-01T08:54:47;94917.41;;;21.53;44.38
81547;BME280;71078;48.358;10.960;2023-08-01T08:57:08;94918.16;;;21.53;44.68
81547;BME280;71078;48.358;10.960;2023-08-01T08:59:29;94918.53;;;22.01;44.15
81547;BME280;71078;48.358;10.960;2023-08-01T09:01:50;94915.19;;;21.51;44.21
81547;BME280;71078;48.358;10.960;2023-08-01T09:04:11;94918.59;;;21.65;44.64
81547;BME280;71078;48.358;10.960;2023-08-01T09:06:35;94931.41;;;22.04;43.82
81547;BME280;71078;48.358;10.960;2023-08-01T09:09:03;94922.31;;;21.68;44.29
81547;BME280;71078;48.358;10.960;2023-08-01T09:11:25;94925.19;;;21.83;43.32
81547;BME280;71078;48.358;10.960;2023-08-01T09:13:47;94925.03;;;21.45;44.79
81547;BME280;71078;48.358;10.960;2023-08-01T09:16:08;94920.84;;;21.74;43.94
81547;BME280;71078;48.358;10.960;2023-08-01T09:18:30;94933.84;;;22.08;43.94
81547;BME280;71078;48.358;10.960;2023-08-01T09:20:50;94932.94;;;22.21;43.99
81547;BME280;71078;48.358;10.960;2023-08-01T09:23:11;94921.44;;;21.80;44.23
81547;BME280;71078;48.358;10.960;2023-08-01T09:25:32;94943.34;;;21.61;44.26
81547;BME280;71078;48.358;10.960;2023-08-01T09:27:53;94926.88;;;21.86;44.06
81547;BME280;71078;48.358;10.960;2023-08-01T09:30:14;94945.28;;;22.40;43.32
81547;BME280;71078;48.358;10.960;2023-08-01T09:32:37;94951.06;;;22.35;42.18
81547;BME280;71078;48.358;10.960;2023-08-01T09:34:59;94946.00;;;21.74;43.08
81547;BME280;71078;48.358;10.960;2023-08-01T09:37:20;94943.88;;;21.52;43.84
81547;BME280;71078;48.358;10.960;2023-08-01T09:39:43;94958.88;;;22.21;42.60
81547;BME280;71078;48.358;10.960;2023-08-01T09:42:07;94962.41;;;22.22;43.17
81547;BME280;71078;48.358;10.960;2023-08-01T09:44:29;94961.59;;;21.98;44.68
81547;BME280;71078;48.358;10.960;2023-08-01T09:49:17;94967.34;;;19.69;48.98
81547;BME280;71078;48.358;10.960;2023-08-01T09:51:48;94979.03;;;19.68;48.92
81547;BME280;71078;48.358;10.960;2023-08-01T09:54:09;94984.75;;;19.09;52.88
81547;BME280;71078;48.358;10.960;2023-08-01T09:56:29;94969.78;;;18.35;56.22
81547;BME280;71078;48.358;10.960;2023-08-01T09:58:52;94962.66;;;18.98;55.10
81547;BME280;71078;48.358;10.960;2023-08-01T10:01:14;94985.94;;;18.18;56.79
81547;BME280;71078;48.358;10.960;2023-08-01T10:03:35;94993.25;;;18.02;57.41
81547;BME280;71078;48.358;10.960;2023-08-01T10:05:56;94979.97;;;17.57;58.72
81547;BME280;71078;48.358;10.960;2023-08-01T10:08:18;94985.00;;;17.96;58.23
81547;BME280;71078;48.358;10.960;2023-08-01T10:10:40;94973.28;;;17.85;58.07
81547;BME280;71078;48.358;10.960;2023-08-01T10:13:01;94966.13;;;18.72;56.64
81547;BME280;71078;48.358;10.960;2023-08-01T10:15:24;94963.59;;;17.91;58.42
81547;BME280;71078;48.358;10.960;2023-08-01T10:17:46;94964.97;;;18.36;58.06
81547;BME280;71078;48.358;10.960;2023-08-01T10:20:07;94942.88;;;18.56;57.93
81547;BME280;71078;48.358;10.960;2023-08-01T10:22:28;94897.28;;;18.33;57.91
81547;BME280;71078;48.358;10.960;2023-08-01T10:24:50;94864.16;;;18.61;57.51
81547;BME280;71078;48.358;10.960;2023-08-01T10:27:13;94861.91;;;18.86;57.28
81547;BME280;71078;48.358;10.960;2023-08-01T10:29:36;94852.38;;;18.82;56.85
81547;BME280;71078;48.358;10.960;2023-08-01T10:31:59;94854.41;;;19.21;56.31
81547;BME280;71078;48.358;10.960;2023-08-01T10:34:20;94934.09;;;18.52;57.65
81547;BME280;71078;48.358;10.960;2023-08-01T10:36:56;94962.94;;;18.81;57.64
81547;BME280;71078;48.358;10.960;2023-08-01T10:39:21;94948.63;;;19.43;56.74
81547;BME280;71078;48.358;10.960;2023-08-01T10:41:43;94937.72;;;19.32;56.84
81547;BME280;71078;48.358;10.960;2023-08-01T10:44:10;94961.41;;;19.12;56.63
81547;BME280;71078;48.358;10.960;2023-08-01T10:49:13;94945.75;;;19.96;55.70
81547;BME280;71078;48.358;10.960;2023-08-01T10:51:37;94937.72;;;19.19;56.22
81547;BME280;71078;48.358;10.960;2023-08-01T10:53:58;94947.13;;;19.42;56.07
81547;BME280;71078;48.358;10.960;2023-08-01T10:56:19;94941.34;;;19.40;55.71
81547;BME280;71078;48.358;10.960;2023-08-01T10:58:40;94943.16;;;19.51;55.88
81547;BME280;71078;48.358;10.960;2023-08-01T11:01:01;94946.75;;;19.72;55.28
81547;BME280;71078;48.358;10.960;2023-08-01T11:03:22;94947.69;;;19.27;55.68
81547;BME280;71078;48.358;10.960;2023-08-01T11:05:42;94949.94;;;19.16;55.33
81547;BME280;71078;48.358;10.960;2023-08-01T11:08:03;94949.06;;;19.47;55.40
81547;BME280;71078;48.358;10.960;2023-08-01T11:10:29;94958.41;;;19.23;56.36
81547;BME280;71078;48.358;10.960;2023-08-01T11:12:50;94949.78;;;18.82;56.55
81547;BME280;71078;48.358;10.960;2023-08-01T11:15:12;94957.44;;;19.08;55.92
81547;BME280;71078;48.358;10.960;2023-08-01T11:17:32;94944.00;;;19.59;55.21
81547;BME280;71078;48.358;10.960;2023-08-01T11:20:04;94955.25;;;19.53;55.22
81547;BME280;71078;48.358;10.960;2023-08-01T11:22:28;94953.78;;;19.26;54.79
81547;BME280;71078;48.358;10.960;2023-08-01T11:24:51;94944.19;;;18.69;56.33
81547;BME280;71078;48.358;10.960;2023-08-01T11:27:12;94954.94;;;18.91;56.65
81547;BME280;71078;48.358;10.960;2023-08-01T11:29:38;94959.31;;;19.66;54.66
81547;BME280;71078;48.358;10.960;2023-08-01T11:32:00;94976.06;;;19.39;54.96
81547;BME280;71078;48.358;10.960;2023-08-01T11:34:21;94973.50;;;18.56;56.03
81547;BME280;71078;48.358;10.960;2023-08-01T11:36:42;94966.53;;;19.48;55.13
81547;BME280;71078;48.358;10.960;2023-08-01T11:39:06;94961.56;;;19.67;54.46
81547;BME280;71078;48.358;10.960;2023-08-01T11:41:27;94953.66;;;20.05;53.75
81547;BME280;71078;48.358;10.960;2023-08-01T11:43:48;94951.03;;;20.41;53.26
81547;BME280;71078;48.358;10.960;2023-08-01T11:46:09;94964.69;;;19.63;54.35
81547;BME280;71078;48.358;10.960;2023-08-01T11:48:30;94975.59;;;19.88;54.48
81547;BME280;71078;48.358;10.960;2023-08-01T11:51:01;94992.53;;;19.63;55.22
81547;BME280;71078;48.358;10.960;2023-08-01T11:53:22;94987.38;;;19.94;55.02
81547;BME280;71078;48.358;10.960;2023-08-01T11:55:43;94988.56;;;19.85;55.79
81547;BME280;71078;48.358;10.960;2023-08-01T11:58:05;94988.50;;;19.38;56.87
81547;BME280;71078;48.358;10.960;2023-08-01T12:00:27;95005.28;;;19.59;56.79
81547;BME280;71078;48.358;10.960;2023-08-01T12:02:48;95003.91;;;19.26;56.46
81547;BME280;71078;48.358;10.960;2023-08-01T12:05:09;95010.78;;;19.38;56.67
81547;BME280;71078;48.358;10.960;2023-08-01T12:07:30;95002.91;;;18.97;57.74
81547;BME280;71078;48.358;10.960;2023-08-01T12:09:58;95008.91;;;19.93;56.60
81547;BME280;71078;48.358;10.960;2023-08-01T12:12:19;95016.22;;;19.83;56.19
81547;BME280;71078;48.358;10.960;2023-08-01T12:14:40;95019.78;;;19.44;55.95
81547;BME280;71078;48.358;10.960;2023-08-01T12:17:01;95013.88;;;19.87;55.53
81547;BME280;71078;48.358;10.960;2023-08-01T12:19:22;94997.13;;;19.87;55.99
81547;BME280;71078;48.358;10.960;2023-08-01T12:21:44;95003.25;;;19.59;56.37
81547;BME280;71078;48.358;10.960;2023-08-01T12:24:05;94999.53;;;20.17;55.72